Okara, Pakistan
Current Conditions -  °F | °C
As of 1:55 AM on Wednesday 26 Nov 2014 (Local Time) from OPLA Reporting Station
Smoke Smoke  
Wind Chill: 54°   Ceiling: Unl
Heat Index: 54°   Visibility: 2.5mi
Dew Point: 48°   Wind: 0mph
Humidity: 82%   Direction: NA
Pressure: NA   Gusts: NA
Location:  30.81°N, 73.45°E
Report Text: OPLA 252055Z 00000KT 4000 FU NSC 12/09 Q1013/A29.92 NOSIG
Loading
Personal Weather Stations






























Interactive Weather Map New forecast layout! Learn more

10-Day Weather Forecast

Advertisements
Track Severe Weather on mobile